Unicom:                    122.8

AWOS:                  118.275

Elevation           1458’ MSL

TPA:                   2500’ MSL

06/24:         5003’ L   75’ W

PAPI:       06/Left     24/Left

(Operate lights on unicom freq.)

Traffic Pattern: Left

Beacon: Sunset to Sunrise

Windsock: yes, lighted

Segmented Circle: No

 

Cleveland Center: 126.72/291.65

FSS: Altoona

[Source: ADDS]
METAR
KFKL 140956Z AUTO 06005KT 10SM CLR 18/16 A3010 RMK AO2 SLP181 T01830156 =
KFKL 140520Z 1406/1506 10005KT P6SM BKN250 FM141600 09008KT P6SM SCT040 FM150000 09005KT P6SM BKN200
TAF
KFKL 140520Z 1406/1506 10005KT P6SM BKN250 FM141600 09008KT P6SM SCT040 FM150000 09005KT P6SM BKN200 =
[Source: ADDS]
METAR
KDUJ 140953Z AUTO 08004KT 10SM CLR 17/13 A3011 RMK AO2 SLP180 T01720128 $ =
KDUJ 140520Z 1406/1506 08005KT P6SM BKN250 FM141600 09005KT P6SM SCT040 FM150000 08005KT P6SM BKN200
TAF
KDUJ 140520Z 1406/1506 08005KT P6SM BKN250 FM141600 09005KT P6SM SCT040 FM150000 08005KT P6SM BKN200 =

Welcome to Clarion County Airport.

We look forward to serving all of your aviation needs.


Clarion County Airport is a General Aviation, Business Class airport serving the Clarion County Area in Central Western Pennsylvania.  Our 5,003' asphalt runway and gps approaches are capable of serving most of the general aviation fleet in most weather conditions.


If you are planning a fuel stop while flying in Western Pennsylvania, consider paying us a visit. Our prices are some of the lowest in the state Check prices here ----> www.airnav.com/fuel and enter identifier KAXQ or see current prices below. We can have you fueled and taxiing out to the runway in about 10 minutes. Our current hours of operation are Monday- Sunday 8:00AM-4:00PM. Holiday closures are Christmas Day and Thanksgiving. If you require use of the facilities during the holidays or after hours please call ahead and someone will be there to assist you.


- Airport Manager -  


                             CURRENT FUEL PRICES AS OF 5/14/2020      JET-A w/additive    $3.50               100LL     $4.50 CC  


                              Self Service fueling available 24/7, credit card reader enabled. Center point fueling available upon request.

                                                           For after hours fueling assistance please contact 814-282-6001.